Time;durP1;ratioP1;P1;durP2;ratioP2;P2;SDS_P1;SDS_P2;PMS_P1;PMS_P2;Temp;Humidity;BMP_temperature;BMP_pressure;BME280_temperature;BME280_humidity;BME280_pressure;Samples;Min_cycle;Max_cycle;Signal;HPM_P1;HPM_P2
2023/06/10 00:01:51;;;;;;;8.35;3.10;;;12.90;99.90;;;;;;4959329;28;20688;-74
2023/06/10 00:04:22;;;;;;;6.97;2.90;;;13.10;99.90;;;;;;4955677;29;20645;-73
2023/06/10 00:06:55;;;;;;;7.35;2.75;;;13.20;99.90;;;;;;4972583;28;20206;-73
2023/06/10 00:09:26;;;;;;;7.28;3.08;;;13.40;99.90;;;;;;4971688;28;20568;-74
2023/06/10 00:11:59;;;;;;;6.35;2.90;;;13.50;99.90;;;;;;4973950;28;20215;-74
2023/06/10 00:14:30;;;;;;;5.88;3.00;;;13.60;99.90;;;;;;4972942;28;20204;-74
2023/06/10 00:17:02;;;;;;;4.85;2.95;;;13.70;99.90;;;;;;4973109;28;20220;-73
2023/06/10 00:19:33;;;;;;;7.70;2.30;;;13.80;99.90;;;;;;4973915;28;20193;-75
2023/06/10 00:22:06;;;;;;;6.65;2.42;;;13.80;99.90;;;;;;4973252;28;20200;-74
2023/06/10 00:24:37;;;;;;;7.60;2.33;;;13.90;99.90;;;;;;4972825;28;20196;-75
2023/06/10 00:27:09;;;;;;;4.85;1.80;;;14.10;99.90;;;;;;4971302;28;20207;-74
2023/06/10 00:29:41;;;;;;;8.15;3.88;;;14.10;99.90;;;;;;4968958;28;20833;-75
2023/06/10 00:32:12;;;;;;;7.32;2.42;;;14.30;99.90;;;;;;4973245;28;20274;-75
2023/06/10 00:34:43;;;;;;;3.55;1.95;;;14.50;99.90;;;;;;4974826;28;20210;-74
2023/06/10 00:37:16;;;;;;;5.43;1.90;;;14.50;99.90;;;;;;4971769;28;20219;-73
2023/06/10 00:39:47;;;;;;;5.55;2.35;;;14.60;99.90;;;;;;4971164;28;20207;-74
2023/06/10 00:42:19;;;;;;;5.07;2.08;;;14.70;99.90;;;;;;4965092;28;20205;-74
2023/06/10 00:44:50;;;;;;;5.63;1.95;;;14.70;99.90;;;;;;4968269;28;20196;-74
2023/06/10 00:47:21;;;;;;;5.68;2.15;;;14.80;99.90;;;;;;4971256;28;20204;-75
2023/06/10 00:49:53;;;;;;;5.43;2.25;;;14.90;99.90;;;;;;4973294;28;20236;-74
2023/06/10 00:52:30;;;;;;;6.88;1.73;;;14.90;99.90;;;;;;4970809;28;20202;-74
2023/06/10 00:55:02;;;;;;;7.05;2.00;;;15.00;99.90;;;;;;4973590;28;20204;-75
2023/06/10 00:57:34;;;;;;;6.20;1.90;;;15.00;99.90;;;;;;4972210;28;20216;-74
2023/06/10 01:00:08;;;;;;;4.40;1.95;;;15.10;99.90;;;;;;4972892;28;20244;-74
2023/06/10 01:02:39;;;;;;;3.13;1.33;;;15.20;99.90;;;;;;4972471;28;20192;-74
2023/06/10 01:05:11;;;;;;;3.17;1.30;;;15.30;99.90;;;;;;4959417;28;20193;-74
2023/06/10 01:07:53;;;;;;;3.70;1.17;;;15.40;99.90;;;;;;4973184;28;20561;-75
2023/06/10 01:10:28;;;;;;;3.33;0.90;;;15.40;99.90;;;;;;4971720;28;20204;-74
2023/06/10 01:13:03;;;;;;;3.42;1.00;;;15.40;99.90;;;;;;4972232;28;20598;-74
2023/06/10 01:15:35;;;;;;;4.72;1.17;;;15.50;99.90;;;;;;4973490;28;20254;-74
2023/06/10 01:18:09;;;;;;;3.55;1.20;;;15.50;99.90;;;;;;4973033;28;20208;-75
2023/06/10 01:20:41;;;;;;;6.50;1.30;;;15.60;99.90;;;;;;4972403;28;20201;-74
2023/06/10 01:23:14;;;;;;;4.97;1.10;;;15.70;99.90;;;;;;4972756;28;20197;-74
2023/06/10 01:25:48;;;;;;;3.40;1.00;;;15.70;99.90;;;;;;4972674;28;20300;-74
2023/06/10 01:28:24;;;;;;;4.05;1.00;;;15.70;99.90;;;;;;4971182;28;20208;-74
2023/06/10 01:31:03;;;;;;;2.55;1.00;;;15.80;99.90;;;;;;4970223;28;20243;-74
2023/06/10 01:33:39;;;;;;;3.78;0.90;;;15.90;99.90;;;;;;4961052;28;20211;-74
2023/06/10 01:36:11;;;;;;;5.70;1.15;;;15.80;99.90;;;;;;4972057;28;20220;-74
2023/06/10 01:38:46;;;;;;;3.30;0.90;;;15.80;99.90;;;;;;4972180;28;20205;-74
2023/06/10 01:41:19;;;;;;;3.20;1.00;;;15.90;99.90;;;;;;4972596;28;20691;-76
2023/06/10 01:43:51;;;;;;;4.47;1.15;;;16.00;99.90;;;;;;4955514;28;20193;-75
2023/06/10 01:46:22;;;;;;;6.18;1.33;;;16.10;99.90;;;;;;4968138;28;20208;-74
2023/06/10 01:48:53;;;;;;;4.18;0.90;;;16.30;99.90;;;;;;4971877;28;20204;-74
2023/06/10 01:51:24;;;;;;;2.75;1.00;;;16.30;99.90;;;;;;4972695;28;20566;-74
2023/06/10 01:53:57;;;;;;;2.42;0.80;;;16.30;99.90;;;;;;4976324;28;20196;-75
2023/06/10 01:56:28;;;;;;;3.53;0.90;;;16.40;99.90;;;;;;4973582;28;20212;-74
2023/06/10 01:59:00;;;;;;;3.05;0.70;;;16.50;99.90;;;;;;4976081;28;20200;-74
2023/06/10 02:01:31;;;;;;;2.88;0.90;;;16.50;99.90;;;;;;4973269;28;20204;-74
2023/06/10 02:04:02;;;;;;;4.75;0.90;;;16.50;99.90;;;;;;4974355;28;20295;-75
2023/06/10 02:06:34;;;;;;;3.80;0.80;;;16.50;99.90;;;;;;4976364;28;20200;-75
2023/06/10 02:09:07;;;;;;;4.45;0.93;;;16.60;99.90;;;;;;4975282;28;20200;-75
2023/06/10 02:11:38;;;;;;;3.25;0.60;;;16.80;99.90;;;;;;4974597;28;20196;-74
2023/06/10 02:14:09;;;;;;;3.20;0.90;;;16.70;99.90;;;;;;4974058;28;20218;-74
2023/06/10 02:16:40;;;;;;;3.78;0.90;;;16.80;99.90;;;;;;4976242;28;20227;-74
2023/06/10 02:19:12;;;;;;;2.25;0.70;;;16.80;99.90;;;;;;4976740;28;20658;-74
2023/06/10 02:21:43;;;;;;;2.40;0.77;;;16.90;99.90;;;;;;4976928;28;20189;-75
2023/06/10 02:24:16;;;;;;;2.75;0.50;;;17.00;99.90;;;;;;4976217;28;20196;-75
2023/06/10 02:26:47;;;;;;;3.10;0.70;;;17.00;99.90;;;;;;4975841;28;20203;-74
2023/06/10 02:29:18;;;;;;;2.63;0.70;;;17.10;99.90;;;;;;4976296;28;20196;-74
2023/06/10 02:31:52;;;;;;;4.85;0.70;;;17.10;99.90;;;;;;4973087;28;20568;-74
2023/06/10 02:34:23;;;;;;;2.63;0.68;;;17.00;99.90;;;;;;4974203;28;20192;-75
2023/06/10 02:36:54;;;;;;;2.75;0.60;;;17.10;99.90;;;;;;4957148;28;20239;-74
2023/06/10 02:39:27;;;;;;;2.67;0.75;;;17.20;99.90;;;;;;4964698;28;20196;-74
2023/06/10 02:41:58;;;;;;;1.45;0.60;;;17.30;99.90;;;;;;4976452;28;20224;-75
2023/06/10 02:44:30;;;;;;;2.33;0.77;;;17.40;99.90;;;;;;4977173;28;20192;-74
2023/06/10 02:47:01;;;;;;;1.75;0.70;;;17.40;99.90;;;;;;4976170;28;20196;-74
2023/06/10 02:49:32;;;;;;;2.10;0.70;;;17.40;99.90;;;;;;4976595;28;20365;-75
2023/06/10 02:52:03;;;;;;;2.92;0.70;;;17.40;99.90;;;;;;4974051;28;20248;-75
2023/06/10 02:54:36;;;;;;;2.15;0.80;;;17.50;99.90;;;;;;4975336;28;20200;-75
2023/06/10 02:57:08;;;;;;;2.10;0.52;;;17.50;99.90;;;;;;4976087;28;20283;-75
2023/06/10 02:59:40;;;;;;;1.63;0.63;;;17.70;99.90;;;;;;4974672;28;20593;-74
2023/06/10 03:02:11;;;;;;;5.82;1.00;;;17.70;99.90;;;;;;4974994;28;20283;-74
2023/06/10 03:04:43;;;;;;;2.75;0.60;;;17.70;99.90;;;;;;4975547;28;20350;-75
2023/06/10 03:07:14;;;;;;;1.98;0.70;;;17.70;99.90;;;;;;4976150;28;20193;-75
2023/06/10 03:09:47;;;;;;;1.83;0.60;;;17.50;99.90;;;;;;4975949;28;20254;-74
2023/06/10 03:12:18;;;;;;;3.17;0.70;;;17.50;99.90;;;;;;4976355;28;20192;-74
2023/06/10 03:14:49;;;;;;;2.25;0.52;;;17.50;99.90;;;;;;4975893;28;20201;-75
2023/06/10 03:17:21;;;;;;;2.63;0.80;;;17.50;99.90;;;;;;4975076;28;20227;-75
2023/06/10 03:19:52;;;;;;;3.25;0.63;;;17.60;99.90;;;;;;4975031;28;20723;-75
2023/06/10 03:22:23;;;;;;;2.30;0.75;;;17.70;99.90;;;;;;4975726;28;20330;-75
2023/06/10 03:24:57;;;;;;;2.15;0.70;;;17.70;99.90;;;;;;4975361;28;20266;-75
2023/06/10 03:27:29;;;;;;;1.55;0.70;;;17.70;99.90;;;;;;4974849;28;20208;-75
2023/06/10 03:30:00;;;;;;;1.10;0.50;;;17.60;99.90;;;;;;4974890;28;20536;-74
2023/06/10 03:32:31;;;;;;;2.28;0.75;;;17.60;99.90;;;;;;4975641;28;20218;-75
2023/06/10 03:35:02;;;;;;;3.67;0.70;;;17.60;99.90;;;;;;4975537;28;20562;-75
2023/06/10 03:37:33;;;;;;;1.63;0.75;;;17.70;99.90;;;;;;4975366;28;20251;-75
2023/06/10 03:40:07;;;;;;;2.05;0.70;;;17.70;99.90;;;;;;4975240;28;20211;-75
2023/06/10 03:42:38;;;;;;;4.07;0.80;;;17.80;99.90;;;;;;4974538;28;20231;-75
2023/06/10 03:45:10;;;;;;;3.10;0.90;;;17.70;99.90;;;;;;4973504;28;20200;-75
2023/06/10 03:47:43;;;;;;;1.17;0.70;;;17.70;99.90;;;;;;4972628;28;20200;-75
2023/06/10 03:50:14;;;;;;;2.17;0.80;;;17.70;99.90;;;;;;4974228;28;20270;-74
2023/06/10 03:52:46;;;;;;;3.10;0.80;;;17.80;99.90;;;;;;4975241;28;20200;-75
2023/06/10 03:55:21;;;;;;;1.65;0.50;;;17.80;99.90;;;;;;4971797;28;20291;-75
2023/06/10 03:57:52;;;;;;;2.17;0.75;;;17.80;99.90;;;;;;4974043;28;20219;-75
2023/06/10 04:00:24;;;;;;;4.43;0.80;;;17.70;99.90;;;;;;4974900;28;20322;-75
2023/06/10 04:02:57;;;;;;;2.67;0.95;;;17.70;99.90;;;;;;4975038;28;20656;-75
2023/06/10 04:05:30;;;;;;;2.60;0.80;;;17.70;99.90;;;;;;4975062;28;20196;-75
2023/06/10 04:08:01;;;;;;;2.45;0.65;;;17.60;99.90;;;;;;4974915;28;20196;-75
2023/06/10 04:10:34;;;;;;;3.00;0.95;;;17.70;99.90;;;;;;4974066;28;20759;-75
2023/06/10 04:13:05;;;;;;;3.70;1.00;;;17.80;99.90;;;;;;4974884;28;20198;-74
2023/06/10 04:15:36;;;;;;;3.40;0.68;;;17.90;99.90;;;;;;4973755;28;20192;-74
2023/06/10 04:18:08;;;;;;;2.17;0.80;;;17.80;99.90;;;;;;4974678;28;20669;-75
2023/06/10 04:20:39;;;;;;;2.88;0.57;;;17.80;99.90;;;;;;4973889;28;20609;-74
2023/06/10 04:23:10;;;;;;;2.67;0.73;;;17.90;99.90;;;;;;4958131;28;20578;-75
2023/06/10 04:25:43;;;;;;;2.28;1.00;;;17.90;99.90;;;;;;4974194;28;20204;-75
2023/06/10 04:28:14;;;;;;;3.50;0.90;;;17.90;99.90;;;;;;4974423;28;20196;-75
2023/06/10 04:30:45;;;;;;;3.50;1.00;;;17.90;99.90;;;;;;4974963;28;20200;-75
2023/06/10 04:33:17;;;;;;;3.45;0.88;;;17.90;99.90;;;;;;4974768;28;20268;-75
2023/06/10 04:35:48;;;;;;;2.83;0.90;;;17.90;99.90;;;;;;4973120;28;20231;-75
2023/06/10 04:38:19;;;;;;;2.63;0.90;;;17.90;99.90;;;;;;4974427;28;20224;-75
2023/06/10 04:40:52;;;;;;;1.38;0.85;;;18.00;99.90;;;;;;4974566;28;20232;-75
2023/06/10 04:43:24;;;;;;;1.38;0.70;;;18.00;99.90;;;;;;4973869;28;20196;-75
2023/06/10 04:45:55;;;;;;;2.75;0.85;;;18.00;99.90;;;;;;4972881;28;20208;-74
2023/06/10 04:48:26;;;;;;;2.13;0.80;;;18.00;99.90;;;;;;4971359;28;20214;-75
2023/06/10 04:50:57;;;;;;;4.32;1.05;;;17.90;99.90;;;;;;4973112;28;20204;-75
2023/06/10 04:53:28;;;;;;;2.47;0.98;;;17.90;99.90;;;;;;4973421;28;20204;-75
2023/06/10 04:56:01;;;;;;;3.38;0.90;;;18.00;99.90;;;;;;4972645;28;20292;-75
2023/06/10 04:58:32;;;;;;;2.28;0.90;;;18.00;99.90;;;;;;4972069;28;20219;-75
2023/06/10 05:01:04;;;;;;;2.58;0.85;;;18.00;99.90;;;;;;4974141;28;20710;-75
2023/06/10 05:03:35;;;;;;;2.17;0.80;;;18.00;99.90;;;;;;4974308;28;20215;-75
2023/06/10 05:06:06;;;;;;;2.30;0.50;;;17.90;99.90;;;;;;4973361;28;20228;-74
2023/06/10 05:08:37;;;;;;;3.55;0.82;;;17.90;99.90;;;;;;4974063;28;20207;-75
2023/06/10 05:11:10;;;;;;;2.05;0.77;;;17.80;99.90;;;;;;4974563;28;20196;-75
2023/06/10 05:13:42;;;;;;;2.25;0.70;;;17.80;99.90;;;;;;4972111;28;20207;-75
2023/06/10 05:16:14;;;;;;;2.53;0.80;;;17.80;99.90;;;;;;4973443;28;20207;-74
2023/06/10 05:18:46;;;;;;;2.15;0.70;;;17.70;99.90;;;;;;4971678;28;20711;-75
2023/06/10 05:21:17;;;;;;;2.97;0.70;;;17.60;99.90;;;;;;4972633;28;20192;-75
2023/06/10 05:23:48;;;;;;;1.45;0.65;;;17.60;99.90;;;;;;4972417;28;20205;-74
2023/06/10 05:26:21;;;;;;;2.00;0.68;;;17.60;99.90;;;;;;4972838;28;20599;-74
2023/06/10 05:28:52;;;;;;;4.35;0.90;;;17.60;99.90;;;;;;4976848;28;20203;-74
2023/06/10 05:31:23;;;;;;;3.15;0.80;;;17.60;99.90;;;;;;4977831;28;20667;-74
2023/06/10 05:33:54;;;;;;;1.05;0.52;;;17.60;99.90;;;;;;4977796;28;20562;-75
2023/06/10 05:36:26;;;;;;;2.05;0.73;;;17.60;99.90;;;;;;4977038;28;20207;-73
2023/06/10 05:38:57;;;;;;;2.83;0.82;;;17.50;99.90;;;;;;4977874;28;20227;-74
2023/06/10 05:41:30;;;;;;;2.15;0.75;;;17.50;99.90;;;;;;4976407;28;20222;-74
2023/06/10 05:44:01;;;;;;;2.00;0.60;;;17.50;99.90;;;;;;4974968;28;20649;-75
2023/06/10 05:46:32;;;;;;;1.70;0.60;;;17.40;99.90;;;;;;4958193;28;20193;-74
2023/06/10 05:49:04;;;;;;;3.30;0.70;;;17.40;99.90;;;;;;4970640;28;20218;-74
2023/06/10 05:51:35;;;;;;;1.42;0.70;;;17.30;99.90;;;;;;4976608;28;20215;-73
2023/06/10 05:54:06;;;;;;;1.42;0.52;;;17.30;99.90;;;;;;4974180;28;20539;-74
2023/06/10 05:56:39;;;;;;;2.78;0.90;;;17.20;99.90;;;;;;4975027;28;20292;-74
2023/06/10 05:59:10;;;;;;;2.30;0.63;;;17.20;99.90;;;;;;4976087;28;20243;-74
2023/06/10 06:01:41;;;;;;;2.60;0.60;;;17.20;99.90;;;;;;4976602;28;20675;-74
2023/06/10 06:04:13;;;;;;;1.20;0.68;;;17.10;99.90;;;;;;4977485;28;20207;-74
2023/06/10 06:06:44;;;;;;;3.97;1.05;;;17.10;99.90;;;;;;4975265;28;20561;-74
2023/06/10 06:09:15;;;;;;;2.60;0.90;;;17.10;99.90;;;;;;4974928;28;20192;-74
2023/06/10 06:11:48;;;;;;;3.58;0.70;;;17.00;99.90;;;;;;4957587;28;20200;-73
2023/06/10 06:14:19;;;;;;;2.05;0.80;;;17.00;99.90;;;;;;4971762;28;20231;-74
2023/06/10 06:16:50;;;;;;;1.80;0.98;;;16.90;99.90;;;;;;4976981;28;20196;-74
2023/06/10 06:19:21;;;;;;;2.28;0.80;;;16.90;99.90;;;;;;4976787;28;20219;-74
2023/06/10 06:21:52;;;;;;;4.13;0.82;;;16.90;99.90;;;;;;4976978;28;20659;-74
2023/06/10 06:24:23;;;;;;;2.22;0.73;;;16.80;99.90;;;;;;4975298;28;20223;-74
2023/06/10 06:26:57;;;;;;;2.72;0.90;;;16.70;99.90;;;;;;4976387;28;20659;-74
2023/06/10 06:29:29;;;;;;;3.25;0.88;;;16.60;99.90;;;;;;4964515;28;20204;-74
2023/06/10 06:32:00;;;;;;;1.90;0.90;;;16.50;99.90;;;;;;4973595;28;20201;-74
2023/06/10 06:34:32;;;;;;;2.03;0.95;;;16.50;99.90;;;;;;4964470;28;20695;-74
2023/06/10 06:37:03;;;;;;;4.70;1.00;;;16.40;99.90;;;;;;4972334;28;20286;-75
2023/06/10 06:39:34;;;;;;;4.63;1.20;;;16.30;99.90;;;;;;4975221;28;20208;-75
2023/06/10 06:42:07;;;;;;;2.08;1.02;;;16.20;99.90;;;;;;4975590;28;21397;-75
2023/06/10 06:44:38;;;;;;;5.28;1.00;;;16.10;99.90;;;;;;4976507;28;20247;-75
2023/06/10 06:47:10;;;;;;;5.97;1.42;;;16.00;99.90;;;;;;4973023;28;20204;-75
2023/06/10 06:49:41;;;;;;;4.97;1.90;;;15.90;99.90;;;;;;4973996;28;20211;-75
2023/06/10 06:52:12;;;;;;;5.30;2.70;;;15.80;99.90;;;;;;4975333;28;20255;-74
2023/06/10 06:54:43;;;;;;;7.85;3.50;;;15.70;99.90;;;;;;4965048;28;20204;-74
2023/06/10 06:57:16;;;;;;;10.13;6.20;;;15.70;99.90;;;;;;4974839;28;20210;-75
2023/06/10 06:59:48;;;;;;;9.25;5.82;;;15.50;99.90;;;;;;4976206;28;20240;-75
2023/06/10 07:02:19;;;;;;;10.55;5.55;;;15.50;99.90;;;;;;4974648;28;20204;-75
2023/06/10 07:04:50;;;;;;;11.40;6.00;;;15.40;99.90;;;;;;4974945;28;20214;-74
2023/06/10 07:07:21;;;;;;;10.05;6.95;;;15.30;99.90;;;;;;4974668;28;20259;-75
2023/06/10 07:09:53;;;;;;;10.65;6.63;;;15.20;99.90;;;;;;4974996;28;20200;-74
2023/06/10 07:12:26;;;;;;;11.63;5.38;;;15.20;99.90;;;;;;4974049;28;20196;-74
2023/06/10 07:14:57;;;;;;;8.75;4.90;;;15.10;99.90;;;;;;4974908;28;20219;-74
2023/06/10 07:17:28;;;;;;;6.85;3.97;;;15.00;99.90;;;;;;4971329;28;20562;-74
2023/06/10 07:19:59;;;;;;;5.90;3.70;;;15.00;99.90;;;;;;4975723;28;20192;-74
2023/06/10 07:22:30;;;;;;;7.35;3.58;;;14.80;99.90;;;;;;4976258;28;20637;-74
2023/06/10 07:25:01;;;;;;;7.20;3.90;;;14.80;99.90;;;;;;4975446;28;20196;-74
2023/06/10 07:27:35;;;;;;;6.93;3.50;;;14.70;99.90;;;;;;4975627;28;20189;-74
2023/06/10 07:30:08;;;;;;;9.10;3.65;;;14.60;99.90;;;;;;4974303;28;20205;-74
2023/06/10 07:32:39;;;;;;;5.93;3.50;;;14.50;99.90;;;;;;4975547;28;20196;-74
2023/06/10 07:35:12;;;;;;;7.22;3.45;;;14.40;99.90;;;;;;4973405;28;20656;-74
2023/06/10 07:37:43;;;;;;;8.52;3.17;;;14.40;99.90;;;;;;4975503;28;20193;-74
2023/06/10 07:40:15;;;;;;;6.57;2.95;;;14.30;99.90;;;;;;4973116;28;20204;-74
2023/06/10 07:42:48;;;;;;;5.82;2.88;;;14.20;99.90;;;;;;4974737;28;20197;-74
2023/06/10 07:45:19;;;;;;;5.80;3.00;;;14.10;99.90;;;;;;4974081;28;20565;-74
2023/06/10 07:47:50;;;;;;;5.00;2.70;;;14.00;99.90;;;;;;4975119;28;20240;-74
2023/06/10 07:50:21;;;;;;;6.45;2.80;;;14.00;99.90;;;;;;4973848;28;20222;-74
2023/06/10 07:52:52;;;;;;;4.35;2.28;;;14.00;99.90;;;;;;4975112;28;20196;-74
2023/06/10 07:55:25;;;;;;;7.10;2.67;;;14.00;99.90;;;;;;4974467;28;20678;-74
2023/06/10 07:57:58;;;;;;;5.03;2.38;;;14.00;99.90;;;;;;4975220;28;20679;-74
2023/06/10 08:00:29;;;;;;;5.32;2.20;;;14.00;99.90;;;;;;4973582;28;20703;-74
2023/06/10 08:03:00;;;;;;;6.10;3.20;;;13.90;99.90;;;;;;4974233;28;20204;-74
2023/06/10 08:05:32;;;;;;;8.27;4.25;;;13.90;99.90;;;;;;4971883;28;20200;-74
2023/06/10 08:08:03;;;;;;;7.10;3.92;;;13.80;99.90;;;;;;4973123;28;20216;-74
2023/06/10 08:10:34;;;;;;;9.65;4.50;;;13.70;99.90;;;;;;4973776;28;20279;-74
2023/06/10 08:13:07;;;;;;;7.25;4.10;;;13.70;99.90;;;;;;4974109;28;20206;-74
2023/06/10 08:15:38;;;;;;;7.13;3.90;;;13.70;99.90;;;;;;4973968;28;20207;-74
2023/06/10 08:18:09;;;;;;;8.27;4.18;;;13.70;99.90;;;;;;4971950;28;20212;-74
2023/06/10 08:20:40;;;;;;;7.35;4.20;;;13.60;99.90;;;;;;4973608;28;20202;-74
2023/06/10 08:23:11;;;;;;;5.80;3.42;;;13.60;99.90;;;;;;4972199;28;20666;-74
2023/06/10 08:25:42;;;;;;;7.78;3.33;;;13.60;99.90;;;;;;4972759;28;20207;-74
2023/06/10 08:28:15;;;;;;;6.78;3.40;;;13.60;99.90;;;;;;4973135;28;20554;-74
2023/06/10 08:30:46;;;;;;;6.93;3.50;;;13.50;99.90;;;;;;4972847;28;20192;-73
2023/06/10 08:33:18;;;;;;;9.00;4.05;;;13.50;99.90;;;;;;4973653;28;20196;-74
2023/06/10 08:35:49;;;;;;;9.50;4.28;;;13.50;99.90;;;;;;4972822;28;20208;-74
2023/06/10 08:38:20;;;;;;;9.77;4.68;;;13.40;99.90;;;;;;4973328;28;20223;-74
2023/06/10 08:40:51;;;;;;;9.30;4.30;;;13.40;99.90;;;;;;4974594;28;20224;-74
2023/06/10 08:43:30;;;;;;;8.68;4.63;;;13.40;99.90;;;;;;4974481;28;20566;-74
2023/06/10 08:46:04;;;;;;;10.55;4.55;;;13.40;99.90;;;;;;4974608;28;20198;-73
2023/06/10 08:48:37;;;;;;;11.10;4.25;;;13.30;99.90;;;;;;4973124;28;20211;-74
2023/06/10 08:51:09;;;;;;;7.88;4.20;;;13.30;99.90;;;;;;4974406;28;20205;-74
2023/06/10 08:53:45;;;;;;;11.30;4.70;;;13.30;99.90;;;;;;4972376;28;20200;-74
2023/06/10 08:56:18;;;;;;;8.27;4.63;;;13.20;99.90;;;;;;4973674;28;20204;-74
2023/06/10 08:58:52;;;;;;;10.45;4.88;;;13.20;99.90;;;;;;4973464;28;20596;-73
2023/06/10 09:01:23;;;;;;;8.25;4.55;;;13.10;99.90;;;;;;4973347;28;20199;-73
2023/06/10 09:03:55;;;;;;;11.23;5.13;;;13.10;99.90;;;;;;4976568;28;20208;-73
2023/06/10 09:06:26;;;;;;;11.93;5.72;;;13.10;99.90;;;;;;4977479;28;20196;-73
2023/06/10 09:08:58;;;;;;;12.20;6.10;;;13.00;99.90;;;;;;4977149;28;20200;-73
2023/06/10 09:11:29;;;;;;;13.73;6.18;;;13.00;99.90;;;;;;4975164;28;20204;-73
2023/06/10 09:14:02;;;;;;;12.95;6.32;;;13.00;99.90;;;;;;4976189;28;20205;-73
2023/06/10 09:16:33;;;;;;;11.57;5.88;;;13.00;99.90;;;;;;4976589;28;20565;-73
2023/06/10 09:19:07;;;;;;;12.70;6.10;;;13.00;99.90;;;;;;4964421;28;20213;-73
2023/06/10 09:21:38;;;;;;;12.77;6.43;;;13.00;99.90;;;;;;4975049;28;20701;-73
2023/06/10 09:24:10;;;;;;;11.63;5.80;;;13.00;99.90;;;;;;4973474;28;20200;-73
2023/06/10 09:26:41;;;;;;;13.25;6.00;;;13.00;99.90;;;;;;4977611;28;20200;-73
2023/06/10 09:29:14;;;;;;;12.70;5.80;;;12.90;99.90;;;;;;4977074;28;20204;-73
2023/06/10 09:31:46;;;;;;;10.35;5.97;;;12.90;99.90;;;;;;4975946;28;20200;-73
2023/06/10 09:34:18;;;;;;;12.45;5.88;;;12.90;99.90;;;;;;4974740;28;20204;-73
2023/06/10 09:36:50;;;;;;;10.85;5.80;;;12.90;99.90;;;;;;4976457;28;20208;-73
2023/06/10 09:39:21;;;;;;;13.30;6.68;;;12.80;99.90;;;;;;4976833;28;20343;-73
2023/06/10 09:41:53;;;;;;;11.50;6.05;;;12.80;99.90;;;;;;4974513;28;20224;-73
2023/06/10 09:44:26;;;;;;;13.43;6.50;;;12.70;99.90;;;;;;4974553;28;20197;-73
2023/06/10 09:46:59;;;;;;;12.18;6.28;;;12.70;99.90;;;;;;4974145;28;20564;-73
2023/06/10 09:49:33;;;;;;;15.68;6.43;;;12.60;99.90;;;;;;4976864;28;20218;-73
2023/06/10 09:52:07;;;;;;;10.50;6.07;;;12.60;99.90;;;;;;4971747;28;20211;-74
2023/06/10 09:54:39;;;;;;;11.85;5.90;;;12.60;99.90;;;;;;4974642;28;20203;-73
2023/06/10 09:57:12;;;;;;;11.80;5.90;;;12.60;99.90;;;;;;4979987;28;20192;-73
2023/06/10 09:59:45;;;;;;;12.00;5.75;;;12.50;99.90;;;;;;4975126;28;20338;-73
2023/06/10 10:02:19;;;;;;;9.98;5.18;;;12.50;99.90;;;;;;4974501;28;20259;-74
2023/06/10 10:04:50;;;;;;;11.05;5.10;;;12.50;99.90;;;;;;4975453;28;20197;-73
2023/06/10 10:07:21;;;;;;;11.00;5.38;;;12.50;99.90;;;;;;4965802;28;20312;-74
2023/06/10 10:09:52;;;;;;;12.48;5.38;;;12.50;99.90;;;;;;4975912;28;20207;-73
2023/06/10 10:12:24;;;;;;;10.35;5.40;;;12.50;99.90;;;;;;4974448;28;20207;-73
2023/06/10 10:14:59;;;;;;;9.90;5.20;;;12.40;99.90;;;;;;4968507;28;20200;-73
2023/06/10 10:17:31;;;;;;;11.80;5.32;;;12.40;99.90;;;;;;4972942;28;20204;-73
2023/06/10 10:20:07;;;;;;;18.05;7.60;;;12.40;99.90;;;;;;4975019;28;20227;-73
2023/06/10 10:22:41;;;;;;;15.57;7.28;;;12.30;99.90;;;;;;4976286;28;20203;-73
2023/06/10 10:25:16;;;;;;;18.00;9.07;;;12.30;99.90;;;;;;4975807;28;20211;-73
2023/06/10 10:27:51;;;;;;;16.30;9.32;;;12.30;99.90;;;;;;4978010;28;20190;-73
2023/06/10 10:30:25;;;;;;;17.13;9.40;;;12.30;99.90;;;;;;4996225;28;20191;-73
2023/06/10 10:33:03;;;;;;;16.60;9.10;;;12.30;99.90;;;;;;4993007;28;20192;-73
2023/06/10 10:35:35;;;;;;;14.70;8.95;;;12.30;99.90;;;;;;4976504;28;20232;-73
2023/06/10 10:38:07;;;;;;;17.63;9.25;;;12.30;99.90;;;;;;4974119;28;20193;-73
2023/06/10 10:40:38;;;;;;;17.80;9.68;;;12.30;99.90;;;;;;4976494;28;20692;-73
2023/06/10 10:43:10;;;;;;;17.67;9.38;;;12.30;99.90;;;;;;4976548;28;20567;-73
2023/06/10 10:45:43;;;;;;;17.58;9.63;;;12.30;99.90;;;;;;4976286;28;20193;-73
2023/06/10 10:48:14;;;;;;;18.83;10.40;;;12.20;99.90;;;;;;4975789;28;20197;-73
2023/06/10 10:50:46;;;;;;;17.98;10.70;;;12.20;99.90;;;;;;4976349;28;20223;-73
2023/06/10 10:53:24;;;;;;;17.58;10.02;;;12.10;99.90;;;;;;4974809;28;20204;-73
2023/06/10 10:56:07;;;;;;;18.48;10.57;;;12.10;99.90;;;;;;4957271;28;20235;-73
2023/06/10 10:58:38;;;;;;;18.23;11.02;;;12.10;99.90;;;;;;4967476;28;20255;-73
2023/06/10 11:01:20;;;;;;;22.10;10.50;;;12.10;99.90;;;;;;4975947;28;20200;-73
2023/06/10 11:03:51;;;;;;;18.65;11.18;;;12.00;99.90;;;;;;4975469;28;20204;-73
2023/06/10 11:06:22;;;;;;;20.17;10.70;;;12.00;99.90;;;;;;4976013;28;20284;-73
2023/06/10 11:08:54;;;;;;;19.23;10.02;;;11.90;99.90;;;;;;4974876;28;20204;-73
2023/06/10 11:11:27;;;;;;;19.83;9.35;;;12.00;99.90;;;;;;4975860;28;20208;-73
2023/06/10 11:14:11;;;;;;;17.90;9.00;;;12.00;99.90;;;;;;4975366;28;20714;-73
2023/06/10 11:16:50;;;;;;;15.90;8.57;;;12.00;99.90;;;;;;4975956;28;20196;-73
2023/06/10 11:19:35;;;;;;;14.65;8.45;;;12.00;99.90;;;;;;4975144;28;20315;-73
2023/06/10 11:22:08;;;;;;;13.95;8.10;;;12.10;99.90;;;;;;4975934;28;20193;-73
2023/06/10 11:24:40;;;;;;;15.75;8.40;;;12.10;99.90;;;;;;4975216;28;20189;-73
2023/06/10 11:27:21;;;;;;;12.98;7.10;;;12.10;99.90;;;;;;4975875;28;20208;-73
2023/06/10 11:30:20;;;;;;;12.45;6.43;;;12.10;99.90;;;;;;4975128;28;20204;-73
2023/06/10 11:32:58;;;;;;;12.05;6.22;;;12.10;99.90;;;;;;4975503;28;20196;-73
2023/06/10 11:35:30;;;;;;;10.45;5.93;;;12.10;99.90;;;;;;4974439;28;20211;-73
2023/06/10 11:38:01;;;;;;;9.50;5.40;;;12.10;99.90;;;;;;4975150;28;20664;-73
2023/06/10 11:40:33;;;;;;;9.85;5.60;;;12.10;99.90;;;;;;4975386;28;20235;-73
2023/06/10 11:43:06;;;;;;;8.70;4.78;;;12.10;99.90;;;;;;4975278;28;20188;-73
2023/06/10 11:45:37;;;;;;;11.27;4.90;;;12.00;99.90;;;;;;4975311;28;20204;-73
2023/06/10 11:48:12;;;;;;;10.32;5.18;;;12.00;99.90;;;;;;4974549;28;20196;-73
2023/06/10 11:50:43;;;;;;;7.70;4.28;;;12.00;99.90;;;;;;4975307;28;20196;-73
2023/06/10 11:53:14;;;;;;;9.57;4.00;;;12.00;99.90;;;;;;4975315;28;20275;-73
2023/06/10 11:55:47;;;;;;;9.02;4.00;;;12.00;99.90;;;;;;4975217;28;20199;-73
2023/06/10 11:58:19;;;;;;;8.55;3.88;;;12.00;99.90;;;;;;4973642;28;20215;-73
2023/06/10 12:00:53;;;;;;;9.05;4.80;;;11.90;99.90;;;;;;4973492;28;20235;-73
2023/06/10 12:03:26;;;;;;;8.35;4.97;;;11.90;99.90;;;;;;4975198;28;20188;-73
2023/06/10 12:06:02;;;;;;;11.05;5.13;;;11.90;99.90;;;;;;4973626;28;20210;-73
2023/06/10 12:08:33;;;;;;;9.82;5.72;;;11.90;99.90;;;;;;4973036;28;20200;-73
2023/06/10 12:11:05;;;;;;;10.90;5.82;;;11.90;99.90;;;;;;4974087;28;20279;-73
2023/06/10 12:13:36;;;;;;;7.45;4.35;;;11.80;99.90;;;;;;4974188;28;20675;-73
2023/06/10 12:16:13;;;;;;;7.40;4.65;;;11.80;99.90;;;;;;4974233;28;20200;-73
2023/06/10 12:18:48;;;;;;;7.70;4.43;;;11.80;99.90;;;;;;4978477;28;20202;-73
2023/06/10 12:21:29;;;;;;;7.70;4.07;;;11.80;99.90;;;;;;4976506;28;20667;-73
2023/06/10 12:24:10;;;;;;;8.05;3.92;;;11.80;99.90;;;;;;4960488;28;20204;-73
2023/06/10 12:26:46;;;;;;;6.65;3.50;;;11.80;99.90;;;;;;4970646;28;20196;-73
2023/06/10 12:29:29;;;;;;;7.75;4.10;;;11.70;99.90;;;;;;4973418;28;20203;-73
2023/06/10 12:32:05;;;;;;;13.85;7.97;;;11.70;99.90;;;;;;4962447;28;20199;-73
2023/06/10 12:34:42;;;;;;;17.20;9.80;;;11.60;99.90;;;;;;4985409;28;20289;-73
2023/06/10 12:37:16;;;;;;;19.08;10.80;;;11.50;99.90;;;;;;4973219;28;20200;-73
2023/06/10 12:39:56;;;;;;;18.63;10.32;;;11.30;99.90;;;;;;4973758;28;20282;-73
2023/06/10 12:42:27;;;;;;;19.20;10.95;;;11.20;99.90;;;;;;4972729;28;20271;-73
2023/06/10 12:45:00;;;;;;;18.33;10.80;;;11.10;99.90;;;;;;4976861;28;20195;-73
2023/06/10 12:47:35;;;;;;;20.90;10.93;;;11.00;99.90;;;;;;4982662;28;20199;-73
2023/06/10 12:50:09;;;;;;;19.63;10.57;;;11.00;99.90;;;;;;4974472;28;20216;-73
2023/06/10 12:52:40;;;;;;;15.57;9.63;;;11.00;99.90;;;;;;4972670;28;20672;-73
2023/06/10 12:55:12;;;;;;;17.17;9.18;;;10.90;99.90;;;;;;4972616;28;20652;-73
2023/06/10 12:57:52;;;;;;;17.80;9.95;;;10.90;99.90;;;;;;4971864;28;20208;-73
2023/06/10 13:00:25;;;;;;;17.52;9.00;;;10.90;99.90;;;;;;4973000;28;20246;-73
2023/06/10 13:02:56;;;;;;;11.98;7.68;;;10.90;99.90;;;;;;4971815;28;20263;-73
2023/06/10 13:05:30;;;;;;;13.40;7.30;;;10.90;99.90;;;;;;4973156;28;20200;-73
2023/06/10 13:08:01;;;;;;;14.18;7.65;;;10.90;99.90;;;;;;4973790;28;20211;-73
2023/06/10 13:10:32;;;;;;;13.55;7.53;;;10.90;99.90;;;;;;4974183;28;20210;-73